Time;durP1;ratioP1;P1;durP2;ratioP2;P2;SDS_P1;SDS_P2;PMS_P1;PMS_P2;Temp;Humidity;BMP_temperature;BMP_pressure;BME280_temperature;BME280_humidity;BME280_pressure;Samples;Min_cycle;Max_cycle;Signal;HPM_P1;HPM_P2
2022/10/23 00:01:25;;;;;;;;;5.67;4.00;;;;;19.26;61.38;100722.47;5026378;28;45495;-90
2022/10/23 00:04:19;;;;;;;;;7.33;5.67;;;;;19.24;61.01;100714.53;5045466;28;46404;-90
2022/10/23 00:06:49;;;;;;;;;6.00;5.67;;;;;19.20;61.07;100710.25;5028243;28;45471;-90
2022/10/23 00:09:27;;;;;;;;;7.00;6.00;;;;;19.23;61.13;100714.59;5020579;28;45380;-90
2022/10/23 00:11:59;;;;;;;;;7.67;6.67;;;;;19.22;61.26;100703.06;5031764;28;45323;-92
2022/10/23 00:14:25;;;;;;;;;6.33;5.33;;;;;19.17;61.54;100692.56;4992266;28;48367;-87
2022/10/23 00:16:50;;;;;;;;;7.00;6.00;;;;;19.18;61.06;100693.44;5036248;28;45297;-86
2022/10/23 00:19:22;;;;;;;;;9.00;9.00;;;;;19.14;61.44;100695.34;5031947;28;45389;-85
2022/10/23 00:21:48;;;;;;;;;6.00;6.00;;;;;19.13;61.44;100677.59;5017818;28;45431;-85
2022/10/23 00:24:16;;;;;;;;;6.00;4.00;;;;;19.10;61.21;100674.19;5021843;28;45345;-85
2022/10/23 00:26:45;;;;;;;;;7.00;4.67;;;;;19.11;61.70;100675.91;5022193;28;45229;-84
2022/10/23 00:29:13;;;;;;;;;8.33;7.00;;;;;19.08;61.16;100679.56;5022789;28;45408;-85
2022/10/23 00:31:41;;;;;;;;;10.00;10.00;;;;;19.06;61.25;100672.56;5005753;28;45226;-85
2022/10/23 00:34:07;;;;;;;;;4.67;4.67;;;;;19.07;61.63;100677.84;5004442;28;47864;-85
2022/10/23 00:36:33;;;;;;;;;7.00;5.00;;;;;19.04;61.72;100674.44;5017545;28;45337;-85
2022/10/23 00:38:59;;;;;;;;;9.00;5.33;;;;;19.07;61.76;100674.31;5022603;28;45239;-85
2022/10/23 00:41:36;;;;;;;;;7.00;5.67;;;;;19.04;61.21;100672.63;5022332;28;45391;-84
2022/10/23 00:44:30;;;;;;;;;6.00;5.33;;;;;18.99;61.33;100658.59;5011190;28;46815;-85
2022/10/23 00:46:58;;;;;;;;;4.00;3.67;;;;;19.03;61.26;100664.69;5004281;28;45450;-85
2022/10/23 00:49:27;;;;;;;;;5.33;5.00;;;;;19.00;61.65;100648.78;5038141;28;45295;-85
2022/10/23 00:52:06;;;;;;;;;7.67;6.33;;;;;18.93;61.63;100641.03;5037056;28;45457;-85
2022/10/23 00:54:44;;;;;;;;;5.00;4.33;;;;;19.01;62.06;100647.88;5039882;28;46200;-85
2022/10/23 00:57:13;;;;;;;;;5.00;5.00;;;;;18.90;61.71;100633.16;5009436;28;45270;-85
2022/10/23 00:59:45;;;;;;;;;6.33;4.00;;;;;18.95;61.99;100633.84;5027781;28;45468;-85
2022/10/23 01:02:10;;;;;;;;;4.33;3.33;;;;;18.95;62.41;100625.84;5027780;28;45436;-84
2022/10/23 01:04:39;;;;;;;;;5.33;4.33;;;;;18.89;61.96;100607.41;5027948;28;47360;-85
2022/10/23 01:07:10;;;;;;;;;3.33;3.33;;;;;18.92;62.23;100614.41;5024159;28;45364;-85
2022/10/23 01:09:51;;;;;;;;;5.00;5.00;;;;;18.94;62.23;100625.91;5032217;28;45474;-85
2022/10/23 01:12:31;;;;;;;;;7.33;6.00;;;;;18.91;62.41;100623.38;5025442;28;45427;-85
2022/10/23 01:15:19;;;;;;;;;3.67;3.67;;;;;18.91;62.32;100612.69;5020325;28;47268;-85
2022/10/23 01:17:53;;;;;;;;;3.33;3.33;;;;;18.89;62.40;100603.88;5026647;28;45414;-84
2022/10/23 01:20:51;;;;;;;;;5.00;5.00;;;;;18.90;62.14;100605.63;5009696;28;45697;-83
2022/10/23 01:23:51;;;;;;;;;4.00;3.00;;;;;18.91;62.16;100602.03;4974610;28;45272;-84
2022/10/23 01:26:38;;;;;;;;;4.33;4.00;;;;;18.90;62.39;100595.81;5026681;28;46123;-86
2022/10/23 01:29:32;;;;;;;;;6.00;6.00;;;;;18.87;62.05;100587.94;5026132;28;45636;-85
2022/10/23 01:32:08;;;;;;;;;4.00;4.00;;;;;18.88;62.49;100591.47;5015287;28;45227;-84
2022/10/23 01:34:52;;;;;;;;;4.00;4.00;;;;;18.82;62.18;100581.94;5031408;28;45436;-85
2022/10/23 01:37:31;;;;;;;;;3.67;3.67;;;;;18.77;62.18;100562.56;5027186;28;45982;-84
2022/10/23 01:40:02;;;;;;;;;4.67;3.67;;;;;18.78;62.33;100566.09;5033210;28;46036;-83
2022/10/23 01:42:34;;;;;;;;;5.00;3.33;;;;;18.78;62.41;100564.28;5024348;28;45313;-83
2022/10/23 01:45:10;;;;;;;;;3.00;3.00;;;;;18.79;62.55;100576.72;5016693;28;45424;-84
2022/10/23 01:47:35;;;;;;;;;3.67;3.67;;;;;18.86;62.29;100588.00;5031876;28;47226;-83
2022/10/23 01:50:06;;;;;;;;;4.00;4.00;;;;;18.86;62.01;100575.53;5036612;28;45205;-83
2022/10/23 01:52:32;;;;;;;;;4.67;4.00;;;;;18.80;62.34;100564.25;5036491;28;45275;-83
2022/10/23 01:55:00;;;;;;;;;4.00;2.67;;;;;18.85;62.14;100567.59;5021229;28;45324;-84
2022/10/23 01:57:31;;;;;;;;;5.33;4.33;;;;;18.87;61.75;100574.63;5010938;28;47048;-83
2022/10/23 02:00:07;;;;;;;;;3.00;3.00;;;;;18.79;62.01;100543.81;5039969;28;45186;-82
2022/10/23 02:02:32;;;;;;;;;3.00;3.00;;;;;18.83;62.11;100556.13;5033890;28;45325;-84
2022/10/23 02:05:15;;;;;;;;;5.00;5.00;;;;;18.82;61.76;100547.25;5018869;28;45414;-85
2022/10/23 02:07:47;;;;;;;;;4.00;3.67;;;;;18.76;62.31;100536.81;5003534;28;46933;-86
2022/10/23 02:10:19;;;;;;;;;6.00;5.00;;;;;18.82;61.92;100539.25;5003038;28;45899;-85
2022/10/23 02:13:29;;;;;;;;;2.00;2.00;;;;;18.80;62.17;100543.78;5002745;28;45273;-84
2022/10/23 02:16:21;;;;;;;;;2.67;2.67;;;;;18.79;62.40;100544.72;4991084;28;45509;-85
2022/10/23 02:19:11;;;;;;;;;2.67;2.67;;;;;18.78;62.20;100539.44;5013588;28;45311;-84
2022/10/23 02:21:36;;;;;;;;;3.33;3.33;;;;;18.75;62.44;100532.44;5010172;28;45396;-84
2022/10/23 02:24:16;;;;;;;;;3.00;2.00;;;;;18.71;62.44;100522.75;5015166;28;45443;-84
2022/10/23 02:26:50;;;;;;;;;4.00;2.00;;;;;18.76;62.29;100526.16;5020951;28;45213;-85
2022/10/23 02:29:34;;;;;;;;;4.33;3.00;;;;;18.77;62.25;100517.22;5006023;28;45261;-85
2022/10/23 02:32:01;;;;;;;;;4.67;3.67;;;;;18.71;62.49;100493.44;4997437;28;45219;-85
2022/10/23 02:34:33;;;;;;;;;3.33;3.00;;;;;18.81;62.01;100508.16;5020871;28;45226;-84
2022/10/23 02:36:59;;;;;;;;;4.00;4.00;;;;;18.73;61.82;100481.75;5000693;28;44890;-85
2022/10/23 02:39:26;;;;;;;;;4.33;4.33;;;;;18.82;62.00;100491.25;5008075;28;46485;-85
2022/10/23 02:41:59;;;;;;;;;3.33;3.33;;;;;18.84;62.42;100491.16;4990117;28;45960;-85
2022/10/23 02:44:42;;;;;;;;;5.00;5.00;;;;;18.84;61.88;100491.16;5010081;28;45398;-85
2022/10/23 02:47:19;;;;;;;;;3.00;3.00;;;;;18.76;61.98;100474.59;5015008;28;45451;-83
2022/10/23 02:50:02;;;;;;;;;2.00;2.00;;;;;18.84;62.24;100483.16;4999051;28;47253;-85
2022/10/23 02:52:45;;;;;;;;;3.33;3.00;;;;;18.85;62.42;100482.25;5005859;28;45474;-84
2022/10/23 02:55:24;;;;;;;;;5.67;3.67;;;;;18.85;62.46;100471.56;5013395;28;45359;-85
2022/10/23 02:58:02;;;;;;;;;4.33;3.00;;;;;18.85;62.04;100469.75;5003494;28;45589;-84
2022/10/23 03:00:31;;;;;;;;;5.00;4.67;;;;;18.81;62.03;100462.81;5021478;28;47643;-85
2022/10/23 03:03:21;;;;;;;;;4.67;3.33;;;;;18.82;62.16;100458.34;4997041;28;45360;-85
2022/10/23 03:05:46;;;;;;;;;3.33;3.33;;;;;18.81;62.36;100452.13;5017729;28;45499;-83
2022/10/23 03:08:15;;;;;;;;;3.00;3.00;;;;;18.76;62.19;100437.28;5016833;28;45289;-85
2022/10/23 03:10:44;;;;;;;;;4.00;3.33;;;;;18.84;62.37;100453.81;5002752;28;48179;-85
2022/10/23 03:13:12;;;;;;;;;3.33;2.67;;;;;18.82;62.54;100445.91;4992959;28;45249;-85
2022/10/23 03:15:37;;;;;;;;;5.00;4.00;;;;;18.75;62.40;100431.06;5022523;28;45255;-85
2022/10/23 03:18:03;;;;;;;;;5.00;3.67;;;;;18.82;62.42;100437.91;5006637;28;45245;-85
2022/10/23 03:20:28;;;;;;;;;3.33;3.33;;;;;18.79;62.47;100426.47;5023782;28;45577;-85
2022/10/23 03:22:54;;;;;;;;;2.67;2.33;;;;;18.73;62.46;100433.75;4992375;28;45390;-86
2022/10/23 03:25:19;;;;;;;;;4.67;4.67;;;;;18.72;62.94;100424.03;5003836;28;45463;-85
2022/10/23 03:27:45;;;;;;;;;3.00;3.00;;;;;18.80;62.82;100436.22;4999647;28;45404;-85
2022/10/23 03:30:11;;;;;;;;;4.33;4.00;;;;;18.75;63.17;100419.53;4998666;28;48555;-85
2022/10/23 03:32:36;;;;;;;;;6.00;3.33;;;;;18.81;62.97;100428.13;5003579;28;45344;-85
2022/10/23 03:35:02;;;;;;;;;4.00;4.00;;;;;18.72;62.67;100418.72;5005838;28;45411;-85
2022/10/23 03:37:30;;;;;;;;;2.67;2.67;;;;;18.80;63.08;100415.75;4994263;28;45284;-85
2022/10/23 03:39:55;;;;;;;;;2.33;2.33;;;;;18.78;62.76;100417.59;4986406;28;48388;-85
2022/10/23 03:42:21;;;;;;;;;1.67;1.67;;;;;18.75;62.82;100411.53;4997856;28;44599;-84
2022/10/23 03:44:46;;;;;;;;;3.67;2.67;;;;;18.75;63.03;100416.88;4993005;28;45401;-84
2022/10/23 03:47:12;;;;;;;;;5.67;5.67;;;;;18.77;63.40;100423.03;4994111;28;45606;-84
2022/10/23 03:49:38;;;;;;;;;4.33;4.00;;;;;18.77;62.90;100426.56;4986730;28;46994;-84
2022/10/23 03:52:05;;;;;;;;;4.00;4.00;;;;;18.77;63.11;100431.03;4998716;28;45537;-85
2022/10/23 03:54:31;;;;;;;;;5.00;5.00;;;;;18.71;63.35;100419.66;4994574;28;45472;-83
2022/10/23 03:56:56;;;;;;;;;4.00;3.67;;;;;18.76;63.23;100416.78;5014990;28;45357;-84
2022/10/23 03:59:27;;;;;;;;;8.67;6.00;;;;;18.75;63.07;100414.22;5028561;28;48055;-85
2022/10/23 04:01:53;;;;;;;;;2.67;2.00;;;;;18.79;63.04;100419.34;5025342;28;45163;-84
2022/10/23 04:04:19;;;;;;;;;3.00;3.00;;;;;18.81;63.18;100425.47;5029732;28;45256;-83
2022/10/23 04:06:44;;;;;;;;;4.33;4.00;;;;;18.73;63.30;100414.22;5015384;28;45334;-85
2022/10/23 04:09:10;;;;;;;;;2.33;2.33;;;;;18.70;63.56;100414.38;5014815;28;48104;-85
2022/10/23 04:11:36;;;;;;;;;5.67;4.00;;;;;18.74;63.60;100421.31;5028530;28;45419;-86
2022/10/23 04:14:02;;;;;;;;;5.00;5.00;;;;;18.73;63.31;100420.44;5006265;28;45443;-85
2022/10/23 04:16:28;;;;;;;;;3.00;3.00;;;;;18.75;63.25;100425.75;5017389;28;45423;-85
2022/10/23 04:18:53;;;;;;;;;4.67;4.00;;;;;18.63;63.67;100413.78;5017790;28;45569;-85
2022/10/23 04:21:19;;;;;;;;;5.33;4.00;;;;;18.67;63.86;100426.03;4995730;28;45726;-85
2022/10/23 04:23:44;;;;;;;;;4.00;4.00;;;;;18.66;63.50;100416.31;5005424;28;45179;-86
2022/10/23 04:26:10;;;;;;;;;3.00;3.00;;;;;18.66;63.56;100426.97;5007285;28;45231;-85
2022/10/23 04:28:36;;;;;;;;;6.67;5.67;;;;;18.62;63.52;100422.69;5013182;28;48187;-85
2022/10/23 04:31:01;;;;;;;;;3.67;2.67;;;;;18.65;63.90;100427.88;5029369;28;45888;-85
2022/10/23 04:33:27;;;;;;;;;5.33;5.33;;;;;18.68;63.90;100435.78;5027717;28;45475;-83
2022/10/23 04:35:53;;;;;;;;;5.33;3.67;;;;;18.68;63.74;100432.22;5014398;28;45210;-85
2022/10/23 04:38:18;;;;;;;;;4.67;4.67;;;;;18.74;63.96;100440.00;5023866;28;48352;-85
2022/10/23 04:40:44;;;;;;;;;6.33;5.00;;;;;18.77;63.98;100425.69;5025493;28;45318;-85
2022/10/23 04:43:11;;;;;;;;;4.67;3.33;;;;;18.69;63.86;100402.84;5026395;28;45484;-85
2022/10/23 04:45:37;;;;;;;;;4.00;3.33;;;;;18.78;64.05;100412.28;5012264;28;45406;-85
2022/10/23 04:48:02;;;;;;;;;5.00;5.00;;;;;18.77;64.25;100397.22;5010959;28;47028;-85
2022/10/23 04:50:28;;;;;;;;;6.33;4.33;;;;;18.74;64.06;100397.31;5024419;28;45451;-85
2022/10/23 04:52:55;;;;;;;;;5.33;4.00;;;;;18.70;64.28;100420.56;5006109;28;45439;-85
2022/10/23 04:55:21;;;;;;;;;5.00;3.67;;;;;18.72;64.18;100463.19;5018167;28;45443;-85
2022/10/23 04:57:46;;;;;;;;;4.00;3.00;;;;;18.70;63.90;100467.69;5032433;28;45224;-85
2022/10/23 05:00:14;;;;;;;;;5.33;5.00;;;;;18.73;63.79;100472.91;5033051;28;44703;-86
2022/10/23 05:02:40;;;;;;;;;6.33;4.67;;;;;18.67;63.90;100454.50;5015234;28;45480;-85
2022/10/23 05:05:06;;;;;;;;;2.67;2.00;;;;;18.60;64.32;100434.34;5014120;28;45384;-85
2022/10/23 05:07:33;;;;;;;;;5.33;5.33;;;;;18.60;64.74;100421.03;5016699;28;47063;-85
2022/10/23 05:09:58;;;;;;;;;5.33;5.00;;;;;18.59;64.41;100406.81;5024248;28;44903;-85
2022/10/23 05:12:25;;;;;;;;;5.33;5.33;;;;;18.61;64.73;100410.31;5034092;28;45424;-86
2022/10/23 05:14:51;;;;;;;;;7.00;6.00;;;;;18.69;64.72;100432.19;5014794;28;45386;-85
2022/10/23 05:17:28;;;;;;;;;6.67;6.67;;;;;18.68;64.39;100418.91;5038234;28;45274;-86
2022/10/23 05:19:59;;;;;;;;;4.00;4.00;;;;;18.73;64.53;100428.44;5021750;28;45245;-85
2022/10/23 05:22:29;;;;;;;;;3.67;3.67;;;;;18.72;64.71;100418.72;5025949;28;45280;-85
2022/10/23 05:24:55;;;;;;;;;5.67;5.67;;;;;18.70;64.83;100420.56;5007916;28;45678;-85
2022/10/23 05:27:20;;;;;;;;;8.33;6.33;;;;;18.73;64.75;100407.09;5007443;28;47511;-84
2022/10/23 05:29:46;;;;;;;;;8.67;7.67;;;;;18.71;65.05;100394.75;5007193;28;45356;-84
2022/10/23 05:32:13;;;;;;;;;6.00;6.00;;;;;18.78;65.39;100392.75;5007566;28;45420;-85
2022/10/23 05:34:40;;;;;;;;;6.33;6.00;;;;;18.72;64.99;100380.50;5021825;28;45092;-85
2022/10/23 05:37:08;;;;;;;;;6.33;6.33;;;;;18.76;65.36;100382.13;5019032;28;46608;-85
2022/10/23 05:39:34;;;;;;;;;5.67;5.67;;;;;18.73;65.27;100366.22;5037574;28;45228;-85
2022/10/23 05:42:08;;;;;;;;;7.00;6.67;;;;;18.72;65.52;100353.84;5024283;28;45597;-85
2022/10/23 05:44:34;;;;;;;;;5.33;5.33;;;;;18.78;65.86;100364.25;5024572;28;45470;-85
2022/10/23 05:46:59;;;;;;;;;7.00;7.00;;;;;18.77;65.70;100349.22;5013564;28;47326;-86
2022/10/23 05:49:25;;;;;;;;;8.00;7.00;;;;;18.67;65.50;100332.69;5021556;28;45377;-86
2022/10/23 05:51:51;;;;;;;;;8.67;7.00;;;;;18.64;65.70;100337.31;5004200;28;45381;-86
2022/10/23 05:54:16;;;;;;;;;5.00;3.67;;;;;18.62;65.40;100344.50;5007918;28;45714;-86
2022/10/23 05:56:42;;;;;;;;;5.67;4.33;;;;;18.61;65.74;100348.13;5042185;28;46281;-86
2022/10/23 05:59:09;;;;;;;;;3.67;3.67;;;;;18.57;65.95;100350.03;5015470;28;45353;-86
2022/10/23 06:01:37;;;;;;;;;6.33;6.33;;;;;18.56;65.85;100347.44;5004146;28;45318;-86
2022/10/23 06:04:03;;;;;;;;;6.67;5.67;;;;;18.46;65.83;100338.97;5017172;28;45248;-86
2022/10/23 06:06:32;;;;;;;;;4.33;4.33;;;;;18.48;65.97;100348.63;5021674;28;45472;-86
2022/10/23 06:08:57;;;;;;;;;4.33;4.33;;;;;18.43;65.73;100347.09;5008862;28;45452;-86
2022/10/23 06:11:23;;;;;;;;;4.67;4.67;;;;;18.44;65.91;100347.03;5025839;28;45384;-86
2022/10/23 06:14:09;;;;;;;;;6.00;5.00;;;;;18.46;66.22;100358.47;5022723;28;45642;-86
2022/10/23 06:16:35;;;;;;;;;6.33;5.00;;;;;18.43;65.82;100345.28;5021471;28;46133;-83
2022/10/23 06:19:01;;;;;;;;;6.00;5.67;;;;;18.39;66.08;100350.81;5021568;28;45199;-84
2022/10/23 06:21:34;;;;;;;;;5.33;5.33;;;;;18.35;66.28;100346.56;5005717;28;45290;-87
2022/10/23 06:24:00;;;;;;;;;9.67;5.67;;;;;18.28;66.25;100338.84;5032238;28;45243;-84
2022/10/23 06:26:25;;;;;;;;;5.67;5.67;;;;;18.28;66.69;100343.25;5003891;28;47572;-84
2022/10/23 06:28:51;;;;;;;;;6.33;5.00;;;;;18.30;66.52;100338.75;5003592;28;45488;-83
2022/10/23 06:31:18;;;;;;;;;5.67;5.00;;;;;18.39;66.63;100348.16;5021887;28;45306;-84
2022/10/23 06:33:44;;;;;;;;;6.00;6.00;;;;;18.41;66.48;100348.94;5021559;28;45454;-84
2022/10/23 06:36:09;;;;;;;;;9.67;7.67;;;;;18.35;66.58;100328.75;5016970;28;48101;-83
2022/10/23 06:38:39;;;;;;;;;8.00;6.67;;;;;18.41;66.75;100338.28;5023267;28;45424;-84
2022/10/23 06:41:11;;;;;;;;;6.67;6.67;;;;;18.37;66.64;100332.22;5024516;28;45237;-83
2022/10/23 06:43:36;;;;;;;;;6.33;6.33;;;;;18.33;66.51;100322.63;5021986;28;45429;-85
2022/10/23 06:46:03;;;;;;;;;6.00;6.00;;;;;18.34;66.67;100335.03;5021881;28;45519;-82
2022/10/23 06:48:29;;;;;;;;;4.33;4.33;;;;;18.37;66.92;100342.03;5021107;28;45328;-83
2022/10/23 06:50:54;;;;;;;;;6.00;6.00;;;;;18.33;66.60;100327.09;5024034;28;45377;-84
2022/10/23 06:53:22;;;;;;;;;5.33;5.33;;;;;18.36;66.65;100329.63;5024372;28;45273;-88
2022/10/23 06:55:48;;;;;;;;;5.00;5.00;;;;;18.34;66.98;100318.19;5022072;28;46348;-81
2022/10/23 06:58:13;;;;;;;;;9.33;7.00;;;;;18.42;66.54;100319.59;5030537;28;45360;-82
2022/10/23 07:00:39;;;;;;;;;7.00;6.33;;;;;18.44;66.51;100316.84;5025475;28;45469;-82
2022/10/23 07:03:04;;;;;;;;;6.67;5.00;;;;;18.47;66.98;100309.59;5013966;28;45706;-83
2022/10/23 07:05:31;;;;;;;;;7.67;7.00;;;;;18.44;66.56;100308.84;5021191;28;47545;-83
2022/10/23 07:07:56;;;;;;;;;8.00;6.00;;;;;18.51;66.55;100313.84;5004671;28;45443;-86
2022/10/23 07:10:22;;;;;;;;;7.00;5.00;;;;;18.52;66.47;100307.59;5021243;28;45344;-82
2022/10/23 07:12:47;;;;;;;;;6.00;6.00;;;;;18.57;66.52;100301.19;5012284;28;45548;-83
2022/10/23 07:15:14;;;;;;;;;6.33;5.00;;;;;18.58;66.43;100301.13;5002879;28;46993;-83
2022/10/23 07:17:46;;;;;;;;;7.00;7.00;;;;;18.62;66.20;100300.03;5003194;28;45263;-90
2022/10/23 07:20:21;;;;;;;;;6.00;6.00;;;;;18.65;66.46;100304.38;5038689;28;45395;-85
2022/10/23 07:22:54;;;;;;;;;8.67;7.00;;;;;18.65;65.85;100312.38;5011250;28;45373;-87
2022/10/23 07:25:24;;;;;;;;;9.67;9.00;;;;;18.57;66.18;100283.38;4994564;28;47965;-85
2022/10/23 07:27:52;;;;;;;;;2.67;2.67;;;;;18.67;66.39;100290.03;5036758;28;45224;-86
2022/10/23 07:30:18;;;;;;;;;5.00;5.00;;;;;18.67;65.97;100298.03;5003928;28;45253;-84
2022/10/23 07:33:18;;;;;;;;;;;;;;;;;;;;;
2022/10/23 07:35:32;;;;;;;;;5.67;5.67;;;;;18.59;65.89;100283.31;5026368;28;45870;-85
2022/10/23 07:38:03;;;;;;;;;8.00;7.67;;;;;18.60;66.23;100282.38;5024159;28;45508;-88
2022/10/23 07:40:29;;;;;;;;;8.00;6.33;;;;;18.63;66.20;100283.13;5002860;28;45315;-88
2022/10/23 07:42:55;;;;;;;;;8.33;6.33;;;;;18.65;66.13;100283.03;5015460;28;45418;-83
2022/10/23 07:45:21;;;;;;;;;6.67;6.67;;;;;18.65;66.02;100275.91;5020541;28;45448;-84
2022/10/23 07:47:50;;;;;;;;;6.00;6.00;;;;;18.72;65.88;100281.84;5020009;28;45475;-86
2022/10/23 07:50:15;;;;;;;;;8.33;6.00;;;;;18.80;66.09;100295.72;5031260;28;45253;-85
2022/10/23 07:52:41;;;;;;;;;11.00;9.00;;;;;18.72;65.69;100265.84;5004123;28;45352;-84
2022/10/23 07:55:07;;;;;;;;;5.00;4.67;;;;;18.80;66.09;100271.72;5009963;28;47046;-83
2022/10/23 07:57:32;;;;;;;;;8.33;7.00;;;;;18.84;65.61;100267.97;5001499;28;45261;-82
2022/10/23 07:59:57;;;;;;;;;7.67;7.33;;;;;18.91;65.32;100280.09;5007296;28;45170;-84
2022/10/23 08:02:23;;;;;;;;;7.00;7.00;;;;;18.92;65.21;100270.28;5016596;28;45555;-83
2022/10/23 08:04:49;;;;;;;;;5.33;5.33;;;;;18.91;64.99;100276.56;5007032;28;48007;-82
2022/10/23 08:07:15;;;;;;;;;6.00;6.00;;;;;18.94;64.76;100265.75;5003539;28;45466;-82
2022/10/23 08:09:40;;;;;;;;;8.00;8.00;;;;;18.99;65.13;100266.41;5018357;28;45549;-82
2022/10/23 08:12:05;;;;;;;;;7.33;6.00;;;;;19.02;65.12;100270.75;5018249;28;45423;-82
2022/10/23 08:14:31;;;;;;;;;6.00;5.33;;;;;19.12;64.52;100266.72;5019768;28;45416;-83
2022/10/23 08:16:56;;;;;;;;;7.67;6.00;;;;;19.11;64.56;100257.84;5014849;28;45323;-83
2022/10/23 08:19:22;;;;;;;;;8.00;8.00;;;;;19.18;64.61;100269.94;5012181;28;45379;-83
2022/10/23 08:21:47;;;;;;;;;6.00;6.00;;;;;19.23;64.22;100272.41;5014594;28;45442;-83
2022/10/23 08:24:13;;;;;;;;;7.33;7.33;;;;;19.27;64.38;100259.75;5000042;28;45345;-79
2022/10/23 08:26:38;;;;;;;;;5.67;4.67;;;;;19.28;63.68;100256.19;4998949;28;45424;-79
2022/10/23 08:29:04;;;;;;;;;9.00;6.67;;;;;19.32;63.98;100250.59;4999689;28;45400;-84
2022/10/23 08:31:29;;;;;;;;;6.67;5.33;;;;;19.38;64.03;100238.78;5016308;28;45340;-81
2022/10/23 08:33:55;;;;;;;;;5.00;4.67;;;;;19.36;63.58;100232.66;5007519;28;46174;-80
2022/10/23 08:36:25;;;;;;;;;6.67;5.67;;;;;19.50;63.69;100242.66;5012288;28;45251;-80
2022/10/23 08:38:53;;;;;;;;;6.33;5.33;;;;;19.54;63.04;100237.09;4999846;28;45281;-79
2022/10/23 08:41:28;;;;;;;;;6.00;6.00;;;;;19.65;62.94;100244.59;4999170;28;45348;-79
2022/10/23 08:44:23;;;;;;;;;7.00;7.00;;;;;19.65;62.57;100230.38;4999432;28;45400;-79
2022/10/23 08:46:59;;;;;;;;;5.00;5.00;;;;;19.70;62.44;100234.56;5006929;28;45439;-79
2022/10/23 08:49:43;;;;;;;;;4.67;4.67;;;;;19.80;62.23;100265.19;5000887;28;45512;-79
2022/10/23 08:52:19;;;;;;;;;6.67;5.67;;;;;19.83;62.26;100261.50;4999065;28;45494;-79
2022/10/23 08:55:14;;;;;;;;;7.00;5.33;;;;;19.92;62.49;100258.41;4997623;28;46982;-79
2022/10/23 08:57:50;;;;;;;;;9.67;9.00;;;;;20.04;62.10;100260.44;5000759;28;45453;-79
2022/10/23 09:00:17;;;;;;;;;4.00;4.00;;;;;20.11;61.99;100254.78;5004457;28;45270;-79
2022/10/23 09:03:04;;;;;;;;;;;;;;;;;;;;;
2022/10/23 09:05:59;;;;;;;;;5.00;5.00;;;;;20.30;61.02;100239.53;5023902;28;75198;-84
2022/10/23 09:08:39;;;;;;;;;6.33;5.00;;;;;20.44;61.19;100255.69;5019989;28;45200;-83
2022/10/23 09:11:15;;;;;;;;;4.00;3.67;;;;;20.42;60.71;100256.72;5034340;28;45420;-84
2022/10/23 09:14:05;;;;;;;;;4.33;4.00;;;;;20.47;60.61;100262.69;5018014;28;45539;-85
2022/10/23 09:16:53;;;;;;;;;5.33;4.33;;;;;20.57;60.51;100265.78;5016545;28;47974;-84
2022/10/23 09:19:25;;;;;;;;;8.33;6.00;;;;;20.57;60.22;100242.59;5016943;28;44731;-84
2022/10/23 09:21:51;;;;;;;;;9.00;8.00;;;;;20.63;60.26;100241.38;5017376;28;44767;-84
2022/10/23 09:24:20;;;;;;;;;6.67;6.00;;;;;20.73;59.63;100249.78;5018795;28;45336;-84
2022/10/23 09:26:48;;;;;;;;;3.00;3.00;;;;;20.78;59.57;100245.06;5002943;28;47125;-84
2022/10/23 09:29:34;;;;;;;;;6.67;5.33;;;;;20.77;59.25;100238.84;5005423;28;45373;-82
2022/10/23 09:32:05;;;;;;;;;6.67;6.67;;;;;20.78;59.24;100227.19;5002298;28;45723;-82
2022/10/23 09:34:32;;;;;;;;;6.00;5.00;;;;;20.83;59.06;100225.13;5005324;28;45491;-82
2022/10/23 09:37:01;;;;;;;;;5.00;5.00;;;;;20.88;58.70;100227.56;5021981;28;47355;-83
2022/10/23 09:39:32;;;;;;;;;5.67;5.00;;;;;20.97;58.93;100232.41;5006798;28;45444;-83
2022/10/23 09:42:01;;;;;;;;;7.33;6.00;;;;;21.06;58.61;100231.91;5000892;28;45259;-83
2022/10/23 09:44:46;;;;;;;;;4.33;4.33;;;;;21.23;58.27;100239.00;5016153;28;45673;-84
2022/10/23 09:47:35;;;;;;;;;;;;;;;;;;;;;
2022/10/23 09:50:01;;;;;;;;;4.67;4.67;;;;;21.50;57.92;100235.72;5008996;28;73074;-83
2022/10/23 09:52:39;;;;;;;;;6.00;4.00;;;;;21.55;57.56;100234.50;5007425;28;45338;-83
2022/10/23 09:55:21;;;;;;;;;5.67;5.33;;;;;21.65;57.11;100228.59;5000652;28;45412;-84
2022/10/23 09:57:54;;;;;;;;;4.33;4.33;;;;;21.71;56.92;100221.09;5003263;28;47075;-83
2022/10/23 10:00:52;;;;;;;;;5.00;4.00;;;;;21.81;56.62;100216.03;5013483;28;45473;-84
2022/10/23 10:03:56;;;;;;;;;7.33;6.33;;;;;21.91;56.34;100219.03;5008776;28;45332;-86
2022/10/23 10:06:32;;;;;;;;;6.67;6.00;;;;;21.99;56.12;100211.41;5020262;28;45262;-82
2022/10/23 10:09:01;;;;;;;;;5.00;2.67;;;;;21.98;56.21;100209.69;5004580;28;47004;-80
2022/10/23 10:11:55;;;;;;;;;6.67;6.67;;;;;22.13;55.99;100218.63;5024084;28;45363;-79
2022/10/23 10:14:41;;;;;;;;;6.33;6.33;;;;;22.32;55.74;100219.28;5007373;28;45564;-79
2022/10/23 10:17:29;;;;;;;;;5.33;5.33;;;;;22.49;55.02;100206.66;5002864;28;45541;-80
2022/10/23 10:20:12;;;;;;;;;5.00;5.00;;;;;22.68;54.73;100200.03;5006271;28;48074;-81
2022/10/23 10:22:52;;;;;;;;;7.00;4.00;;;;;22.84;54.82;100199.06;5019159;28;45677;-80
2022/10/23 10:25:28;;;;;;;;;6.00;6.00;;;;;23.00;54.09;100197.16;5019598;28;45549;-79
2022/10/23 10:27:54;;;;;;;;;16.00;12.00;;;;;23.16;53.71;100198.84;5019048;28;45399;-78
2022/10/23 10:30:21;;;;;;;;;6.00;5.67;;;;;23.29;53.15;100203.31;5011388;28;45549;-80
2022/10/23 10:33:16;;;;;;;;;8.00;5.33;;;;;23.45;53.17;100203.19;4998161;28;46152;-79
2022/10/23 10:35:59;;;;;;;;;5.33;4.00;;;;;23.55;52.46;100198.94;5014640;28;45602;-79
2022/10/23 10:38:31;;;;;;;;;6.00;6.00;;;;;23.61;52.01;100208.41;4996343;28;45555;-80
2022/10/23 10:41:17;;;;;;;;;3.67;3.67;;;;;23.73;52.21;100209.44;5004653;28;45609;-80
2022/10/23 10:44:10;;;;;;;;;5.00;5.00;;;;;23.87;51.55;100204.00;4999455;28;45437;-82
2022/10/23 10:46:45;;;;;;;;;4.33;3.67;;;;;24.06;51.75;100206.28;4982652;28;45904;-82
2022/10/23 10:49:23;;;;;;;;;7.00;5.33;;;;;24.23;51.01;100202.44;5016902;28;45580;-83
2022/10/23 10:52:17;;;;;;;;;5.00;5.00;;;;;24.38;50.27;100187.91;4980960;28;47256;-81
2022/10/23 10:54:51;;;;;;;;;3.00;3.00;;;;;24.62;50.27;100179.13;5001878;28;45530;-81
2022/10/23 10:57:29;;;;;;;;;3.67;3.33;;;;;25.09;49.84;100174.78;4995013;28;45414;-81
2022/10/23 11:00:00;;;;;;;;;8.00;5.00;;;;;25.86;48.83;100179.88;4999550;28;45409;-82
2022/10/23 11:02:27;;;;;;;;;4.67;4.67;;;;;26.56;47.81;100182.50;5009528;28;48160;-82
2022/10/23 11:04:59;;;;;;;;;6.33;4.67;;;;;27.66;46.41;100185.25;5001529;28;45377;-81
2022/10/23 11:07:33;;;;;;;;;4.33;3.67;;;;;28.70;44.42;100153.75;5005060;28;45473;-80
2022/10/23 11:10:04;;;;;;;;;4.33;4.33;;;;;29.30;43.42;100173.66;5014655;28;45367;-81
2022/10/23 11:12:29;;;;;;;;;4.67;4.67;;;;;30.10;42.06;100174.38;5014247;28;47007;-82
2022/10/23 11:14:55;;;;;;;;;5.33;5.33;;;;;31.13;41.36;100148.13;5015050;28;45424;-81
2022/10/23 11:17:38;;;;;;;;;6.67;6.00;;;;;32.71;39.19;100157.25;5005114;28;45582;-81
2022/10/23 11:20:38;;;;;;;;;2.33;2.33;;;;;34.48;36.50;100146.91;5011069;28;45243;-81
2022/10/23 11:23:33;;;;;;;;;5.00;4.00;;;;;35.61;34.54;100142.94;5003564;28;47044;-81
2022/10/23 11:26:04;;;;;;;;;2.33;2.33;;;;;35.79;32.14;100139.88;4999305;28;45941;-82
2022/10/23 11:28:54;;;;;;;;;3.67;3.33;;;;;35.14;32.19;100130.22;5005053;28;45426;-81
2022/10/23 11:31:37;;;;;;;;;5.00;4.33;;;;;35.37;32.61;100121.22;5010008;28;45595;-83
2022/10/23 11:34:21;;;;;;;;;5.33;3.00;;;;;36.72;30.77;100127.63;5019176;28;46575;-83
2022/10/23 11:36:53;;;;;;;;;2.67;2.33;;;;;36.30;29.24;100139.22;5017454;28;45728;-81
2022/10/23 11:39:22;;;;;;;;;3.33;3.33;;;;;35.33;30.07;100128.91;5006564;28;45366;-82
2022/10/23 11:41:53;;;;;;;;;4.33;4.00;;;;;35.94;30.06;100135.28;5000616;28;45753;-82
2022/10/23 11:44:42;;;;;;;;;4.33;4.00;;;;;36.33;29.36;100130.63;5001830;28;47857;-81
2022/10/23 11:47:34;;;;;;;;;3.67;2.67;;;;;36.71;29.35;100130.56;4999550;28;45506;-82
2022/10/23 11:50:12;;;;;;;;;2.00;2.00;;;;;36.21;28.04;100116.53;5014643;28;45562;-83
2022/10/23 11:52:51;;;;;;;;;6.00;5.00;;;;;35.07;28.69;100130.13;5000669;28;45480;-82